sensor_id;sensor_type;location;lat;lon;timestamp;pressure;altitude;pressure_sealevel;temperature;humidity
41062;BME280;26812;42.662;23.352;2024-02-21T00:01:22;95563.59;;;6.79;70.73
41062;BME280;26812;42.662;23.352;2024-02-21T00:03:48;95549.53;;;6.97;69.70
41062;BME280;26812;42.662;23.352;2024-02-21T00:06:13;95564.94;;;6.81;70.75
41062;BME280;26812;42.662;23.352;2024-02-21T00:08:38;95563.84;;;6.82;71.03
41062;BME280;26812;42.662;23.352;2024-02-21T00:11:04;95547.91;;;7.01;70.11
41062;BME280;26812;42.662;23.352;2024-02-21T00:13:29;95538.53;;;6.99;69.92
41062;BME280;26812;42.662;23.352;2024-02-21T00:15:55;95557.53;;;7.07;69.50
41062;BME280;26812;42.662;23.352;2024-02-21T00:18:21;95517.34;;;6.63;69.83
41062;BME280;26812;42.662;23.352;2024-02-21T00:20:46;95552.75;;;6.99;69.83
41062;BME280;26812;42.662;23.352;2024-02-21T00:23:11;95562.53;;;6.80;70.51
41062;BME280;26812;42.662;23.352;2024-02-21T00:25:37;95537.50;;;6.50;71.19
41062;BME280;26812;42.662;23.352;2024-02-21T00:28:03;95553.09;;;6.88;70.53
41062;BME280;26812;42.662;23.352;2024-02-21T00:30:28;95556.25;;;6.95;70.36
41062;BME280;26812;42.662;23.352;2024-02-21T00:32:53;95551.53;;;7.21;68.94
41062;BME280;26812;42.662;23.352;2024-02-21T00:35:21;95558.06;;;7.09;69.33
41062;BME280;26812;42.662;23.352;2024-02-21T00:37:46;95553.34;;;6.91;69.55
41062;BME280;26812;42.662;23.352;2024-02-21T00:40:12;95553.81;;;6.98;69.47
41062;BME280;26812;42.662;23.352;2024-02-21T00:42:37;95539.63;;;6.98;70.05
41062;BME280;26812;42.662;23.352;2024-02-21T00:45:03;95534.63;;;6.86;70.17
41062;BME280;26812;42.662;23.352;2024-02-21T00:47:29;95548.09;;;6.71;70.72
41062;BME280;26812;42.662;23.352;2024-02-21T00:49:54;95545.13;;;6.77;71.11
41062;BME280;26812;42.662;23.352;2024-02-21T00:52:20;95541.25;;;6.94;70.76
41062;BME280;26812;42.662;23.352;2024-02-21T00:54:45;95539.50;;;7.18;69.88
41062;BME280;26812;42.662;23.352;2024-02-21T00:57:11;95519.16;;;6.73;70.51
41062;BME280;26812;42.662;23.352;2024-02-21T00:59:37;95543.88;;;7.04;69.77
41062;BME280;26812;42.662;23.352;2024-02-21T01:02:03;95535.47;;;6.81;70.45
41062;BME280;26812;42.662;23.352;2024-02-21T01:04:28;95533.50;;;6.92;70.65
41062;BME280;26812;42.662;23.352;2024-02-21T01:06:53;95524.06;;;7.05;69.49
41062;BME280;26812;42.662;23.352;2024-02-21T01:09:19;95527.16;;;6.83;69.93
41062;BME280;26812;42.662;23.352;2024-02-21T01:11:44;95527.28;;;6.58;71.40
41062;BME280;26812;42.662;23.352;2024-02-21T01:14:10;95523.44;;;6.79;71.49
41062;BME280;26812;42.662;23.352;2024-02-21T01:16:36;95519.47;;;7.10;69.89
41062;BME280;26812;42.662;23.352;2024-02-21T01:19:01;95516.31;;;6.98;69.77
41062;BME280;26812;42.662;23.352;2024-02-21T01:21:27;95493.59;;;6.91;69.97
41062;BME280;26812;42.662;23.352;2024-02-21T01:23:53;95520.72;;;6.84;70.63
41062;BME280;26812;42.662;23.352;2024-02-21T01:26:19;95481.75;;;6.63;70.66
41062;BME280;26812;42.662;23.352;2024-02-21T01:28:47;95512.53;;;7.04;69.95
41062;BME280;26812;42.662;23.352;2024-02-21T01:31:12;95511.63;;;7.19;69.04
41062;BME280;26812;42.662;23.352;2024-02-21T01:33:38;95503.06;;;7.17;68.50
41062;BME280;26812;42.662;23.352;2024-02-21T01:36:04;95502.53;;;7.15;69.02
41062;BME280;26812;42.662;23.352;2024-02-21T01:38:32;95508.00;;;7.00;69.66
41062;BME280;26812;42.662;23.352;2024-02-21T01:40:58;95490.84;;;6.62;70.31
41062;BME280;26812;42.662;23.352;2024-02-21T01:43:23;95485.09;;;6.44;70.69
41062;BME280;26812;42.662;23.352;2024-02-21T01:45:50;95500.25;;;6.98;69.49
41062;BME280;26812;42.662;23.352;2024-02-21T01:48:17;95497.22;;;6.71;70.10
41062;BME280;26812;42.662;23.352;2024-02-21T01:50:45;95494.44;;;6.86;70.19
41062;BME280;26812;42.662;23.352;2024-02-21T01:53:11;95500.44;;;6.68;70.77
41062;BME280;26812;42.662;23.352;2024-02-21T01:55:44;95497.50;;;6.69;70.38
41062;BME280;26812;42.662;23.352;2024-02-21T01:58:10;95480.50;;;6.89;70.08
41062;BME280;26812;42.662;23.352;2024-02-21T02:00:37;95488.81;;;6.88;68.79
41062;BME280;26812;42.662;23.352;2024-02-21T02:03:04;95491.56;;;6.77;69.94
41062;BME280;26812;42.662;23.352;2024-02-21T02:05:29;95491.50;;;6.88;69.03
41062;BME280;26812;42.662;23.352;2024-02-21T02:07:55;95494.06;;;6.64;69.74
41062;BME280;26812;42.662;23.352;2024-02-21T02:10:20;95495.00;;;6.83;68.96
41062;BME280;26812;42.662;23.352;2024-02-21T02:12:46;95484.44;;;6.97;68.90
41062;BME280;26812;42.662;23.352;2024-02-21T02:15:11;95460.94;;;6.89;68.03
41062;BME280;26812;42.662;23.352;2024-02-21T02:17:37;95495.00;;;7.17;67.26
41062;BME280;26812;42.662;23.352;2024-02-21T02:20:02;95491.72;;;7.25;67.16
41062;BME280;26812;42.662;23.352;2024-02-21T02:22:32;95491.22;;;6.89;67.55
41062;BME280;26812;42.662;23.352;2024-02-21T02:25:01;95467.38;;;6.88;67.83
41062;BME280;26812;42.662;23.352;2024-02-21T02:27:26;95486.22;;;6.77;68.75
41062;BME280;26812;42.662;23.352;2024-02-21T02:29:52;95478.81;;;6.59;68.99
41062;BME280;26812;42.662;23.352;2024-02-21T02:32:17;95475.38;;;6.93;68.88
41062;BME280;26812;42.662;23.352;2024-02-21T02:34:43;95473.91;;;6.71;69.68
41062;BME280;26812;42.662;23.352;2024-02-21T02:37:08;95478.47;;;6.71;69.55
41062;BME280;26812;42.662;23.352;2024-02-21T02:39:34;95472.19;;;6.91;69.16
41062;BME280;26812;42.662;23.352;2024-02-21T02:41:59;95472.75;;;6.88;69.15
41062;BME280;26812;42.662;23.352;2024-02-21T02:44:25;95472.38;;;6.99;69.17
41062;BME280;26812;42.662;23.352;2024-02-21T02:46:50;95477.06;;;7.18;67.85
41062;BME280;26812;42.662;23.352;2024-02-21T02:49:16;95477.09;;;7.12;67.63
41062;BME280;26812;42.662;23.352;2024-02-21T02:51:42;95450.00;;;6.85;67.96
41062;BME280;26812;42.662;23.352;2024-02-21T02:54:08;95474.97;;;6.75;68.98
41062;BME280;26812;42.662;23.352;2024-02-21T02:56:34;95471.28;;;6.66;69.58
41062;BME280;26812;42.662;23.352;2024-02-21T02:58:59;95480.41;;;7.04;68.48
41062;BME280;26812;42.662;23.352;2024-02-21T03:01:25;95468.59;;;7.05;68.03
41062;BME280;26812;42.662;23.352;2024-02-21T03:03:50;95481.53;;;6.93;69.50
41062;BME280;26812;42.662;23.352;2024-02-21T03:06:16;95492.16;;;7.08;69.46
41062;BME280;26812;42.662;23.352;2024-02-21T03:08:41;95461.22;;;6.87;68.55
41062;BME280;26812;42.662;23.352;2024-02-21T03:11:08;95488.34;;;7.14;68.96
41062;BME280;26812;42.662;23.352;2024-02-21T03:13:34;95488.19;;;7.35;67.23
41062;BME280;26812;42.662;23.352;2024-02-21T03:15:59;95493.38;;;7.21;68.29
41062;BME280;26812;42.662;23.352;2024-02-21T03:18:25;95501.84;;;7.33;67.85
41062;BME280;26812;42.662;23.352;2024-02-21T03:20:50;95487.97;;;7.26;67.65
41062;BME280;26812;42.662;23.352;2024-02-21T03:23:15;95499.00;;;7.20;67.49
41062;BME280;26812;42.662;23.352;2024-02-21T03:25:41;95494.06;;;7.32;67.14
41062;BME280;26812;42.662;23.352;2024-02-21T03:28:06;95500.41;;;7.46;67.15
41062;BME280;26812;42.662;23.352;2024-02-21T03:30:32;95490.03;;;7.34;66.74
41062;BME280;26812;42.662;23.352;2024-02-21T03:32:59;95502.81;;;7.13;67.11
41062;BME280;26812;42.662;23.352;2024-02-21T03:35:24;95507.44;;;7.03;68.24
41062;BME280;26812;42.662;23.352;2024-02-21T03:37:52;95487.97;;;6.92;68.35
41062;BME280;26812;42.662;23.352;2024-02-21T03:40:17;95514.81;;;7.21;67.02
41062;BME280;26812;42.662;23.352;2024-02-21T03:42:42;95509.72;;;7.20;67.39
41062;BME280;26812;42.662;23.352;2024-02-21T03:45:08;95504.66;;;7.18;67.06
41062;BME280;26812;42.662;23.352;2024-02-21T03:47:34;95503.69;;;7.04;68.55
41062;BME280;26812;42.662;23.352;2024-02-21T03:49:59;95512.66;;;7.23;67.14
41062;BME280;26812;42.662;23.352;2024-02-21T03:52:25;95485.94;;;7.13;67.02
41062;BME280;26812;42.662;23.352;2024-02-21T03:54:50;95514.75;;;7.26;67.18
41062;BME280;26812;42.662;23.352;2024-02-21T03:57:16;95508.00;;;7.00;67.09
41062;BME280;26812;42.662;23.352;2024-02-21T03:59:42;95514.06;;;7.15;67.63
41062;BME280;26812;42.662;23.352;2024-02-21T04:02:09;95503.94;;;7.07;67.61
41062;BME280;26812;42.662;23.352;2024-02-21T04:04:35;95511.19;;;7.02;68.16
41062;BME280;26812;42.662;23.352;2024-02-21T04:07:02;95506.09;;;7.05;68.19
41062;BME280;26812;42.662;23.352;2024-02-21T04:09:34;95517.34;;;7.07;68.32
41062;BME280;26812;42.662;23.352;2024-02-21T04:12:00;95490.59;;;6.97;67.91
41062;BME280;26812;42.662;23.352;2024-02-21T04:14:26;95498.13;;;7.29;66.90
41062;BME280;26812;42.662;23.352;2024-02-21T04:16:52;95491.63;;;7.06;67.31
41062;BME280;26812;42.662;23.352;2024-02-21T04:19:17;95513.31;;;7.10;68.00
41062;BME280;26812;42.662;23.352;2024-02-21T04:21:42;95501.78;;;7.09;67.84
41062;BME280;26812;42.662;23.352;2024-02-21T04:24:08;95509.22;;;7.18;67.27
41062;BME280;26812;42.662;23.352;2024-02-21T04:26:34;95491.13;;;7.04;67.11
41062;BME280;26812;42.662;23.352;2024-02-21T04:28:59;95516.31;;;7.32;66.75
41062;BME280;26812;42.662;23.352;2024-02-21T04:31:25;95503.34;;;7.15;67.40
41062;BME280;26812;42.662;23.352;2024-02-21T04:33:50;95508.75;;;7.10;67.39
41062;BME280;26812;42.662;23.352;2024-02-21T04:36:16;95494.16;;;6.88;67.59
41062;BME280;26812;42.662;23.352;2024-02-21T04:38:41;95511.47;;;7.00;67.88
41062;BME280;26812;42.662;23.352;2024-02-21T04:41:07;95507.53;;;6.93;67.94
41062;BME280;26812;42.662;23.352;2024-02-21T04:43:33;95509.56;;;6.67;68.52
41062;BME280;26812;42.662;23.352;2024-02-21T04:45:58;95519.84;;;6.49;69.95
41062;BME280;26812;42.662;23.352;2024-02-21T04:48:25;95519.34;;;6.37;70.32
41062;BME280;26812;42.662;23.352;2024-02-21T04:50:50;95502.91;;;6.59;69.46
41062;BME280;26812;42.662;23.352;2024-02-21T04:53:16;95505.25;;;6.76;69.08
41062;BME280;26812;42.662;23.352;2024-02-21T04:55:41;95508.53;;;6.63;69.21
41062;BME280;26812;42.662;23.352;2024-02-21T04:58:07;95508.56;;;6.58;69.42
41062;BME280;26812;42.662;23.352;2024-02-21T05:00:33;95504.03;;;6.53;69.28
41062;BME280;26812;42.662;23.352;2024-02-21T05:02:58;95503.50;;;6.51;69.88
41062;BME280;26812;42.662;23.352;2024-02-21T05:05:24;95512.66;;;6.45;69.38
41062;BME280;26812;42.662;23.352;2024-02-21T05:07:49;95512.78;;;6.14;71.01
41062;BME280;26812;42.662;23.352;2024-02-21T05:10:14;95506.41;;;6.00;70.92
41062;BME280;26812;42.662;23.352;2024-02-21T05:12:40;95507.47;;;6.04;71.63
41062;BME280;26812;42.662;23.352;2024-02-21T05:15:07;95511.72;;;6.10;70.97
41062;BME280;26812;42.662;23.352;2024-02-21T05:17:32;95526.97;;;6.10;71.57
41062;BME280;26812;42.662;23.352;2024-02-21T05:19:58;95524.25;;;6.20;71.59
41062;BME280;26812;42.662;23.352;2024-02-21T05:22:23;95522.34;;;6.31;71.25
41062;BME280;26812;42.662;23.352;2024-02-21T05:24:48;95527.13;;;6.34;70.80
41062;BME280;26812;42.662;23.352;2024-02-21T05:27:14;95506.06;;;6.22;71.06
41062;BME280;26812;42.662;23.352;2024-02-21T05:29:39;95504.16;;;6.28;70.98
41062;BME280;26812;42.662;23.352;2024-02-21T05:32:05;95522.84;;;6.43;70.60
41062;BME280;26812;42.662;23.352;2024-02-21T05:34:30;95517.16;;;6.49;70.69
41062;BME280;26812;42.662;23.352;2024-02-21T05:36:56;95527.84;;;6.54;70.33
41062;BME280;26812;42.662;23.352;2024-02-21T05:39:22;95532.03;;;6.76;69.66
41062;BME280;26812;42.662;23.352;2024-02-21T05:41:49;95532.31;;;6.69;69.44
41062;BME280;26812;42.662;23.352;2024-02-21T05:44:15;95536.84;;;6.74;69.38
41062;BME280;26812;42.662;23.352;2024-02-21T05:46:41;95529.28;;;6.86;69.43
41062;BME280;26812;42.662;23.352;2024-02-21T05:49:07;95529.00;;;6.88;68.57
41062;BME280;26812;42.662;23.352;2024-02-21T05:51:33;95534.63;;;6.86;68.72
41062;BME280;26812;42.662;23.352;2024-02-21T05:53:59;95537.91;;;6.78;69.19
41062;BME280;26812;42.662;23.352;2024-02-21T05:56:24;95536.38;;;7.06;68.36
41062;BME280;26812;42.662;23.352;2024-02-21T05:58:49;95530.78;;;6.97;67.30
41062;BME280;26812;42.662;23.352;2024-02-21T06:01:15;95552.25;;;6.92;68.05
41062;BME280;26812;42.662;23.352;2024-02-21T06:03:40;95538.88;;;6.92;67.74
41062;BME280;26812;42.662;23.352;2024-02-21T06:06:06;95541.47;;;7.02;67.82
41062;BME280;26812;42.662;23.352;2024-02-21T06:08:32;95546.81;;;7.02;67.79
41062;BME280;26812;42.662;23.352;2024-02-21T06:10:58;95508.91;;;6.85;67.53
41062;BME280;26812;42.662;23.352;2024-02-21T06:13:23;95522.78;;;6.92;67.02
41062;BME280;26812;42.662;23.352;2024-02-21T06:15:49;95564.56;;;7.32;66.13
41062;BME280;26812;42.662;23.352;2024-02-21T06:18:17;95553.56;;;7.34;66.80
41062;BME280;26812;42.662;23.352;2024-02-21T06:20:42;95564.00;;;7.69;65.46
41062;BME280;26812;42.662;23.352;2024-02-21T06:23:08;95562.13;;;7.99;64.04
41062;BME280;26812;42.662;23.352;2024-02-21T06:25:34;95567.47;;;8.23;63.22
41062;BME280;26812;42.662;23.352;2024-02-21T06:27:59;95565.16;;;8.64;60.86
41062;BME280;26812;42.662;23.352;2024-02-21T06:30:25;95566.41;;;8.90;58.82
41062;BME280;26812;42.662;23.352;2024-02-21T06:32:50;95575.69;;;8.79;60.54
41062;BME280;26812;42.662;23.352;2024-02-21T06:35:15;95574.25;;;9.24;60.30
41062;BME280;26812;42.662;23.352;2024-02-21T06:37:42;95579.72;;;10.17;56.46
41062;BME280;26812;42.662;23.352;2024-02-21T06:40:07;95569.22;;;10.02;56.11
41062;BME280;26812;42.662;23.352;2024-02-21T06:42:33;95579.69;;;10.03;56.51
41062;BME280;26812;42.662;23.352;2024-02-21T06:44:59;95580.88;;;9.97;55.62
41062;BME280;26812;42.662;23.352;2024-02-21T06:47:24;95584.16;;;9.94;56.45
41062;BME280;26812;42.662;23.352;2024-02-21T06:49:50;95589.34;;;10.04;56.20
41062;BME280;26812;42.662;23.352;2024-02-21T06:52:19;95594.28;;;10.16;55.16
41062;BME280;26812;42.662;23.352;2024-02-21T06:54:49;95592.81;;;9.91;55.82
41062;BME280;26812;42.662;23.352;2024-02-21T06:57:14;95561.75;;;9.66;55.90
41062;BME280;26812;42.662;23.352;2024-02-21T06:59:41;95598.03;;;10.01;56.02
41062;BME280;26812;42.662;23.352;2024-02-21T07:02:06;95598.63;;;9.98;55.63
41062;BME280;26812;42.662;23.352;2024-02-21T07:04:50;95585.28;;;9.74;56.18
41062;BME280;26812;42.662;23.352;2024-02-21T07:07:16;95594.41;;;9.59;57.53
41062;BME280;26812;42.662;23.352;2024-02-21T07:09:41;95590.59;;;9.79;55.94
41062;BME280;26812;42.662;23.352;2024-02-21T07:12:07;95578.16;;;9.32;57.32
41062;BME280;26812;42.662;23.352;2024-02-21T07:14:32;95597.13;;;9.03;58.68
41062;BME280;26812;42.662;23.352;2024-02-21T07:16:58;95595.47;;;9.26;59.21
41062;BME280;26812;42.662;23.352;2024-02-21T07:19:23;95595.53;;;9.40;58.16
41062;BME280;26812;42.662;23.352;2024-02-21T07:21:49;95600.13;;;9.01;58.94
41062;BME280;26812;42.662;23.352;2024-02-21T07:24:14;95596.78;;;9.10;58.59
41062;BME280;26812;42.662;23.352;2024-02-21T07:26:43;95608.69;;;9.41;58.88
41062;BME280;26812;42.662;23.352;2024-02-21T07:29:08;95597.63;;;9.43;58.39
41062;BME280;26812;42.662;23.352;2024-02-21T07:31:43;95600.47;;;9.14;59.10
41062;BME280;26812;42.662;23.352;2024-02-21T07:34:09;95607.16;;;9.16;59.20
41062;BME280;26812;42.662;23.352;2024-02-21T07:36:35;95601.28;;;8.95;59.25
41062;BME280;26812;42.662;23.352;2024-02-21T07:39:00;95599.97;;;8.93;60.06
41062;BME280;26812;42.662;23.352;2024-02-21T07:41:26;95600.28;;;9.29;59.38
41062;BME280;26812;42.662;23.352;2024-02-21T07:43:51;95602.53;;;9.22;58.28
41062;BME280;26812;42.662;23.352;2024-02-21T07:46:18;95604.25;;;8.94;59.41
41062;BME280;26812;42.662;23.352;2024-02-21T07:48:45;95601.09;;;8.68;60.91
41062;BME280;26812;42.662;23.352;2024-02-21T07:51:10;95585.78;;;8.68;61.36
41062;BME280;26812;42.662;23.352;2024-02-21T07:53:38;95601.22;;;9.00;60.56
41062;BME280;26812;42.662;23.352;2024-02-21T07:56:04;95598.38;;;9.11;59.26
41062;BME280;26812;42.662;23.352;2024-02-21T07:58:29;95598.19;;;8.83;59.93
41062;BME280;26812;42.662;23.352;2024-02-21T08:00:55;95588.91;;;8.76;60.42
41062;BME280;26812;42.662;23.352;2024-02-21T08:03:20;95586.34;;;8.84;60.22
41062;BME280;26812;42.662;23.352;2024-02-21T08:05:46;95575.91;;;8.83;61.03
41062;BME280;26812;42.662;23.352;2024-02-21T08:08:12;95587.66;;;9.43;59.25
41062;BME280;26812;42.662;23.352;2024-02-21T08:10:43;95590.81;;;9.31;59.03
41062;BME280;26812;42.662;23.352;2024-02-21T08:13:09;95597.78;;;9.32;60.35
41062;BME280;26812;42.662;23.352;2024-02-21T08:15:34;95589.53;;;9.61;58.81
41062;BME280;26812;42.662;23.352;2024-02-21T08:18:00;95581.47;;;9.61;59.08
41062;BME280;26812;42.662;23.352;2024-02-21T08:20:27;95587.03;;;9.84;57.87
41062;BME280;26812;42.662;23.352;2024-02-21T08:22:52;95594.06;;;10.12;nan
41062;BME280;26812;42.662;23.352;2024-02-21T08:25:17;95592.00;;;10.37;55.44
41062;BME280;26812;42.662;23.352;2024-02-21T08:27:43;95588.22;;;10.38;56.21
41062;BME280;26812;42.662;23.352;2024-02-21T08:30:10;95590.63;;;10.80;53.66
41062;BME280;26812;42.662;23.352;2024-02-21T08:32:36;95585.50;;;11.42;52.71
41062;BME280;26812;42.662;23.352;2024-02-21T08:35:02;95574.28;;;11.71;50.19
41062;BME280;26812;42.662;23.352;2024-02-21T08:37:28;95583.53;;;11.57;51.12
41062;BME280;26812;42.662;23.352;2024-02-21T08:39:53;95575.25;;;11.75;49.48
41062;BME280;26812;42.662;23.352;2024-02-21T08:42:18;95586.88;;;11.62;49.55
41062;BME280;26812;42.662;23.352;2024-02-21T08:44:44;95575.22;;;11.31;50.66
41062;BME280;26812;42.662;23.352;2024-02-21T08:47:10;95578.97;;;11.43;50.01
41062;BME280;26812;42.662;23.352;2024-02-21T08:49:35;95591.13;;;11.55;50.07
41062;BME280;26812;42.662;23.352;2024-02-21T08:52:02;95589.50;;;11.31;49.60
41062;BME280;26812;42.662;23.352;2024-02-21T08:54:28;95581.69;;;11.88;50.00
41062;BME280;26812;42.662;23.352;2024-02-21T08:56:54;95584.28;;;12.55;48.57
41062;BME280;26812;42.662;23.352;2024-02-21T08:59:19;95593.13;;;12.87;47.45
41062;BME280;26812;42.662;23.352;2024-02-21T09:01:47;95585.59;;;13.32;45.52
41062;BME280;26812;42.662;23.352;2024-02-21T09:04:13;95591.63;;;13.46;45.72
41062;BME280;26812;42.662;23.352;2024-02-21T09:06:38;95579.19;;;13.88;45.53
41062;BME280;26812;42.662;23.352;2024-02-21T09:09:08;95588.50;;;14.25;42.71
41062;BME280;26812;42.662;23.352;2024-02-21T09:11:34;95539.53;;;12.40;46.90
41062;BME280;26812;42.662;23.352;2024-02-21T09:13:59;95585.34;;;13.11;46.85
41062;BME280;26812;42.662;23.352;2024-02-21T09:16:25;95587.75;;;13.13;45.61
41062;BME280;26812;42.662;23.352;2024-02-21T09:18:50;95590.50;;;13.30;44.27
41062;BME280;26812;42.662;23.352;2024-02-21T09:21:16;95586.16;;;11.93;47.01
41062;BME280;26812;42.662;23.352;2024-02-21T09:23:41;95589.28;;;11.41;49.28
41062;BME280;26812;42.662;23.352;2024-02-21T09:26:07;95588.50;;;11.86;49.33
41062;BME280;26812;42.662;23.352;2024-02-21T09:28:34;95566.69;;;12.75;47.75
41062;BME280;26812;42.662;23.352;2024-02-21T09:31:00;95580.91;;;13.15;46.11
41062;BME280;26812;42.662;23.352;2024-02-21T09:33:25;95552.81;;;12.68;46.24
41062;BME280;26812;42.662;23.352;2024-02-21T09:35:52;95561.75;;;11.75;48.45
41062;BME280;26812;42.662;23.352;2024-02-21T09:38:18;95589.69;;;12.24;48.85
41062;BME280;26812;42.662;23.352;2024-02-21T09:40:43;95588.09;;;12.23;48.74
41062;BME280;26812;42.662;23.352;2024-02-21T09:43:09;95578.09;;;12.63;47.09
41062;BME280;26812;42.662;23.352;2024-02-21T09:45:34;95552.91;;;12.46;47.84
41062;BME280;26812;42.662;23.352;2024-02-21T09:50:45;95589.78;;;11.66;50.16
41062;BME280;26812;42.662;23.352;2024-02-21T09:53:12;95573.91;;;12.49;48.42
41062;BME280;26812;42.662;23.352;2024-02-21T09:55:43;95583.56;;;12.41;47.89
41062;BME280;26812;42.662;23.352;2024-02-21T09:58:09;95580.09;;;11.87;48.26
41062;BME280;26812;42.662;23.352;2024-02-21T10:00:37;95579.72;;;12.33;48.58
41062;BME280;26812;42.662;23.352;2024-02-21T10:03:03;95581.84;;;12.93;46.12
41062;BME280;26812;42.662;23.352;2024-02-21T10:05:34;95565.78;;;12.49;46.22
41062;BME280;26812;42.662;23.352;2024-02-21T10:08:00;95565.94;;;12.43;45.66
41062;BME280;26812;42.662;23.352;2024-02-21T10:10:26;95577.78;;;12.65;45.46
41062;BME280;26812;42.662;23.352;2024-02-21T10:12:53;95577.50;;;12.84;45.60
41062;BME280;26812;42.662;23.352;2024-02-21T10:15:24;95570.63;;;13.78;43.11
41062;BME280;26812;42.662;23.352;2024-02-21T10:17:58;95574.84;;;14.60;42.56
41062;BME280;26812;42.662;23.352;2024-02-21T10:20:24;95554.59;;;15.16;39.96
41062;BME280;26812;42.662;23.352;2024-02-21T10:23:03;95559.28;;;15.28;39.82
41062;BME280;26812;42.662;23.352;2024-02-21T10:25:35;95559.25;;;15.37;38.70
41062;BME280;26812;42.662;23.352;2024-02-21T10:28:06;95554.72;;;14.70;40.28
41062;BME280;26812;42.662;23.352;2024-02-21T10:30:32;95547.94;;;14.84;39.96
41062;BME280;26812;42.662;23.352;2024-02-21T10:32:58;95545.31;;;14.97;40.64
41062;BME280;26812;42.662;23.352;2024-02-21T10:35:30;95541.44;;;14.77;39.67
41062;BME280;26812;42.662;23.352;2024-02-21T10:37:56;95530.69;;;15.10;37.68
41062;BME280;26812;42.662;23.352;2024-02-21T10:40:26;95528.13;;;14.08;39.16
41062;BME280;26812;42.662;23.352;2024-02-21T10:43:02;95525.16;;;14.39;39.55
41062;BME280;26812;42.662;23.352;2024-02-21T10:45:35;95521.19;;;14.36;40.15
41062;BME280;26812;42.662;23.352;2024-02-21T10:48:12;95513.47;;;14.17;40.57
41062;BME280;26812;42.662;23.352;2024-02-21T10:50:56;95497.97;;;14.85;39.84
41062;BME280;26812;42.662;23.352;2024-02-21T10:53:32;95498.56;;;15.53;37.47
41062;BME280;26812;42.662;23.352;2024-02-21T10:56:26;95495.72;;;16.65;36.43
41062;BME280;26812;42.662;23.352;2024-02-21T10:58:53;95501.47;;;18.08;32.82
41062;BME280;26812;42.662;23.352;2024-02-21T11:01:21;95489.91;;;18.93;32.10
41062;BME280;26812;42.662;23.352;2024-02-21T11:03:49;95486.63;;;19.77;29.26
41062;BME280;26812;42.662;23.352;2024-02-21T11:06:16;95475.28;;;19.98;30.35
41062;BME280;26812;42.662;23.352;2024-02-21T11:08:42;95479.38;;;21.03;28.64
41062;BME280;26812;42.662;23.352;2024-02-21T11:11:08;95439.88;;;21.67;27.08
41062;BME280;26812;42.662;23.352;2024-02-21T11:13:35;95469.19;;;20.77;28.35
41062;BME280;26812;42.662;23.352;2024-02-21T11:16:12;95476.09;;;19.21;29.63
41062;BME280;26812;42.662;23.352;2024-02-21T11:18:38;95466.19;;;18.98;30.56
41062;BME280;26812;42.662;23.352;2024-02-21T11:21:04;95454.91;;;20.87;28.28
41062;BME280;26812;42.662;23.352;2024-02-21T11:23:30;95460.88;;;18.85;28.94
41062;BME280;26812;42.662;23.352;2024-02-21T11:26:09;95469.06;;;17.63;31.32
41062;BME280;26812;42.662;23.352;2024-02-21T11:28:35;95453.28;;;17.68;30.62
41062;BME280;26812;42.662;23.352;2024-02-21T11:31:07;95463.59;;;17.07;30.85
41062;BME280;26812;42.662;23.352;2024-02-21T11:33:34;95453.69;;;16.87;31.86
41062;BME280;26812;42.662;23.352;2024-02-21T11:36:00;95448.00;;;16.06;33.16
41062;BME280;26812;42.662;23.352;2024-02-21T11:38:25;95442.19;;;15.83;33.40
41062;BME280;26812;42.662;23.352;2024-02-21T11:40:50;95448.16;;;14.90;35.27
41062;BME280;26812;42.662;23.352;2024-02-21T11:43:16;95444.91;;;14.17;36.88
41062;BME280;26812;42.662;23.352;2024-02-21T11:45:42;95429.03;;;13.60;38.48
41062;BME280;26812;42.662;23.352;2024-02-21T11:48:07;95438.56;;;13.66;37.80
41062;BME280;26812;42.662;23.352;2024-02-21T11:50:34;95432.56;;;13.52;38.14
41062;BME280;26812;42.662;23.352;2024-02-21T11:53:01;95389.16;;;13.14;38.42
41062;BME280;26812;42.662;23.352;2024-02-21T11:55:26;95398.63;;;13.63;38.08
41062;BME280;26812;42.662;23.352;2024-02-21T11:57:52;95425.56;;;13.42;38.45
41062;BME280;26812;42.662;23.352;2024-02-21T12:00:18;95431.31;;;13.41;39.20
41062;BME280;26812;42.662;23.352;2024-02-21T12:02:47;95424.59;;;13.47;38.15
41062;BME280;26812;42.662;23.352;2024-02-21T12:05:12;95424.97;;;12.85;38.78
41062;BME280;26812;42.662;23.352;2024-02-21T12:07:39;95423.88;;;12.86;39.20
41062;BME280;26812;42.662;23.352;2024-02-21T12:10:09;95413.84;;;12.60;40.01
41062;BME280;26812;42.662;23.352;2024-02-21T12:12:36;95433.25;;;12.62;40.29
41062;BME280;26812;42.662;23.352;2024-02-21T12:15:03;95421.78;;;12.57;41.30
41062;BME280;26812;42.662;23.352;2024-02-21T12:17:30;95408.75;;;12.76;40.16
41062;BME280;26812;42.662;23.352;2024-02-21T12:19:56;95411.91;;;13.04;40.04
41062;BME280;26812;42.662;23.352;2024-02-21T12:22:22;95404.72;;;13.43;40.29
41062;BME280;26812;42.662;23.352;2024-02-21T12:24:48;95418.63;;;12.98;39.99
41062;BME280;26812;42.662;23.352;2024-02-21T12:27:13;95413.19;;;12.72;40.40
41062;BME280;26812;42.662;23.352;2024-02-21T12:29:39;95418.22;;;12.22;42.08
41062;BME280;26812;42.662;23.352;2024-02-21T12:32:04;95418.97;;;12.05;42.67
41062;BME280;26812;42.662;23.352;2024-02-21T12:34:30;95407.38;;;12.04;42.52
41062;BME280;26812;42.662;23.352;2024-02-21T12:36:58;95407.97;;;11.31;43.12
41062;BME280;26812;42.662;23.352;2024-02-21T12:39:24;95392.41;;;10.74;44.44
41062;BME280;26812;42.662;23.352;2024-02-21T12:41:49;95403.47;;;10.95;44.58
41062;BME280;26812;42.662;23.352;2024-02-21T12:44:15;95407.97;;;10.77;45.11
41062;BME280;26812;42.662;23.352;2024-02-21T12:46:42;95404.03;;;10.83;45.44
41062;BME280;26812;42.662;23.352;2024-02-21T12:49:07;95398.16;;;10.81;45.30
41062;BME280;26812;42.662;23.352;2024-02-21T12:51:34;95409.59;;;10.87;45.19
41062;BME280;26812;42.662;23.352;2024-02-21T12:54:00;95402.38;;;10.96;44.80
41062;BME280;26812;42.662;23.352;2024-02-21T12:56:26;95400.63;;;11.23;45.05